sensor_id;sensor_type;location;lat;lon;timestamp;temperature;humidity
73780;SHT30;62093;37.614;15.072;2022-07-25T00:00:47;26.14;54.70
73780;SHT30;62093;37.614;15.072;2022-07-25T00:03:13;26.14;54.70
73780;SHT30;62093;37.614;15.072;2022-07-25T00:05:39;26.14;54.68
73780;SHT30;62093;37.614;15.072;2022-07-25T00:08:05;26.13;54.69
73780;SHT30;62093;37.614;15.072;2022-07-25T00:10:31;26.10;54.72
73780;SHT30;62093;37.614;15.072;2022-07-25T00:12:57;26.13;54.72
73780;SHT30;62093;37.614;15.072;2022-07-25T00:15:23;26.13;54.69
73780;SHT30;62093;37.614;15.072;2022-07-25T00:17:48;26.13;54.69
73780;SHT30;62093;37.614;15.072;2022-07-25T00:20:14;26.13;54.70
73780;SHT30;62093;37.614;15.072;2022-07-25T00:22:40;26.10;54.72
73780;SHT30;62093;37.614;15.072;2022-07-25T00:25:06;26.10;54.72
73780;SHT30;62093;37.614;15.072;2022-07-25T00:27:32;26.10;54.76
73780;SHT30;62093;37.614;15.072;2022-07-25T00:29:58;26.13;54.74
73780;SHT30;62093;37.614;15.072;2022-07-25T00:32:24;26.11;54.75
73780;SHT30;62093;37.614;15.072;2022-07-25T00:34:49;26.08;54.75
73780;SHT30;62093;37.614;15.072;2022-07-25T00:37:15;26.08;54.74
73780;SHT30;62093;37.614;15.072;2022-07-25T00:39:41;26.11;54.80
73780;SHT30;62093;37.614;15.072;2022-07-25T00:42:07;26.07;54.75
73780;SHT30;62093;37.614;15.072;2022-07-25T00:44:33;26.07;54.76
73780;SHT30;62093;37.614;15.072;2022-07-25T00:46:59;26.08;54.76
73780;SHT30;62093;37.614;15.072;2022-07-25T00:49:25;26.07;54.74
73780;SHT30;62093;37.614;15.072;2022-07-25T00:51:52;26.10;54.76
73780;SHT30;62093;37.614;15.072;2022-07-25T00:54:19;26.05;54.76
73780;SHT30;62093;37.614;15.072;2022-07-25T00:56:45;26.07;54.74
73780;SHT30;62093;37.614;15.072;2022-07-25T00:59:11;26.05;54.75
73780;SHT30;62093;37.614;15.072;2022-07-25T01:01:37;26.05;54.82
73780;SHT30;62093;37.614;15.072;2022-07-25T01:04:04;26.05;54.85
73780;SHT30;62093;37.614;15.072;2022-07-25T01:06:30;26.05;54.81
73780;SHT30;62093;37.614;15.072;2022-07-25T01:08:57;26.02;54.79
73780;SHT30;62093;37.614;15.072;2022-07-25T01:11:24;26.04;54.79
73780;SHT30;62093;37.614;15.072;2022-07-25T01:13:50;26.04;54.81
73780;SHT30;62093;37.614;15.072;2022-07-25T01:16:16;26.04;54.82
73780;SHT30;62093;37.614;15.072;2022-07-25T01:18:41;26.02;54.85
73780;SHT30;62093;37.614;15.072;2022-07-25T01:21:07;26.04;54.84
73780;SHT30;62093;37.614;15.072;2022-07-25T01:23:33;26.01;54.80
73780;SHT30;62093;37.614;15.072;2022-07-25T01:25:59;26.02;54.82
73780;SHT30;62093;37.614;15.072;2022-07-25T01:28:25;26.02;54.86
73780;SHT30;62093;37.614;15.072;2022-07-25T01:30:51;26.02;54.82
73780;SHT30;62093;37.614;15.072;2022-07-25T01:33:18;26.00;54.84
73780;SHT30;62093;37.614;15.072;2022-07-25T01:35:45;26.00;54.86
73780;SHT30;62093;37.614;15.072;2022-07-25T01:38:11;26.00;54.85
73780;SHT30;62093;37.614;15.072;2022-07-25T01:40:38;26.00;54.89
73780;SHT30;62093;37.614;15.072;2022-07-25T01:43:04;26.01;54.85
73780;SHT30;62093;37.614;15.072;2022-07-25T01:45:30;26.00;54.83
73780;SHT30;62093;37.614;15.072;2022-07-25T01:47:56;26.00;54.86
73780;SHT30;62093;37.614;15.072;2022-07-25T01:50:22;26.01;54.84
73780;SHT30;62093;37.614;15.072;2022-07-25T01:52:49;26.00;54.83
73780;SHT30;62093;37.614;15.072;2022-07-25T01:55:15;26.01;54.81
73780;SHT30;62093;37.614;15.072;2022-07-25T01:57:41;26.00;54.84
73780;SHT30;62093;37.614;15.072;2022-07-25T02:00:09;26.01;54.83
73780;SHT30;62093;37.614;15.072;2022-07-25T02:02:42;26.00;54.81
73780;SHT30;62093;37.614;15.072;2022-07-25T02:05:10;26.01;54.81
73780;SHT30;62093;37.614;15.072;2022-07-25T02:07:36;26.00;54.81
73780;SHT30;62093;37.614;15.072;2022-07-25T02:10:03;26.00;54.76
73780;SHT30;62093;37.614;15.072;2022-07-25T02:12:30;25.98;54.71
73780;SHT30;62093;37.614;15.072;2022-07-25T02:14:56;26.01;54.74
73780;SHT30;62093;37.614;15.072;2022-07-25T02:17:21;25.97;54.76
73780;SHT30;62093;37.614;15.072;2022-07-25T02:19:47;25.98;54.55
73780;SHT30;62093;37.614;15.072;2022-07-25T02:22:13;26.00;54.59
73780;SHT30;62093;37.614;15.072;2022-07-25T02:24:39;25.98;54.66
73780;SHT30;62093;37.614;15.072;2022-07-25T02:27:05;25.98;54.67
73780;SHT30;62093;37.614;15.072;2022-07-25T02:29:31;25.97;54.68
73780;SHT30;62093;37.614;15.072;2022-07-25T02:31:58;25.97;54.61
73780;SHT30;62093;37.614;15.072;2022-07-25T02:34:42;26.00;54.67
73780;SHT30;62093;37.614;15.072;2022-07-25T02:37:08;25.98;54.63
73780;SHT30;62093;37.614;15.072;2022-07-25T02:39:34;25.94;54.61
73780;SHT30;62093;37.614;15.072;2022-07-25T02:42:00;25.96;54.62
73780;SHT30;62093;37.614;15.072;2022-07-25T02:44:26;25.96;54.63
73780;SHT30;62093;37.614;15.072;2022-07-25T02:46:51;25.98;54.54
73780;SHT30;62093;37.614;15.072;2022-07-25T02:49:17;25.98;54.60
73780;SHT30;62093;37.614;15.072;2022-07-25T02:51:43;25.98;54.52
73780;SHT30;62093;37.614;15.072;2022-07-25T02:54:09;25.97;54.50
73780;SHT30;62093;37.614;15.072;2022-07-25T02:56:35;25.98;54.53
73780;SHT30;62093;37.614;15.072;2022-07-25T02:59:00;25.98;54.55
73780;SHT30;62093;37.614;15.072;2022-07-25T03:01:26;25.98;54.41
73780;SHT30;62093;37.614;15.072;2022-07-25T03:03:52;25.97;54.37
73780;SHT30;62093;37.614;15.072;2022-07-25T03:06:18;25.98;54.45
73780;SHT30;62093;37.614;15.072;2022-07-25T03:08:44;25.98;54.48
73780;SHT30;62093;37.614;15.072;2022-07-25T03:11:11;25.98;54.38
73780;SHT30;62093;37.614;15.072;2022-07-25T03:13:36;25.96;54.52
73780;SHT30;62093;37.614;15.072;2022-07-25T03:16:02;25.97;54.50
73780;SHT30;62093;37.614;15.072;2022-07-25T03:18:28;25.97;54.26
73780;SHT30;62093;37.614;15.072;2022-07-25T03:20:54;25.97;54.35
73780;SHT30;62093;37.614;15.072;2022-07-25T03:23:20;25.98;54.32
73780;SHT30;62093;37.614;15.072;2022-07-25T03:25:46;25.97;54.26
73780;SHT30;62093;37.614;15.072;2022-07-25T03:28:11;25.94;54.24
73780;SHT30;62093;37.614;15.072;2022-07-25T03:30:37;25.96;54.42
73780;SHT30;62093;37.614;15.072;2022-07-25T03:33:03;25.96;54.30
73780;SHT30;62093;37.614;15.072;2022-07-25T03:35:29;25.96;54.21
73780;SHT30;62093;37.614;15.072;2022-07-25T03:37:55;25.94;54.18
73780;SHT30;62093;37.614;15.072;2022-07-25T03:40:21;25.98;54.22
73780;SHT30;62093;37.614;15.072;2022-07-25T03:42:47;25.96;54.30
73780;SHT30;62093;37.614;15.072;2022-07-25T03:45:12;25.94;54.31
73780;SHT30;62093;37.614;15.072;2022-07-25T03:47:38;25.93;54.21
73780;SHT30;62093;37.614;15.072;2022-07-25T03:50:04;25.94;54.15
73780;SHT30;62093;37.614;15.072;2022-07-25T03:52:30;25.96;54.18
73780;SHT30;62093;37.614;15.072;2022-07-25T03:54:56;25.91;54.24
73780;SHT30;62093;37.614;15.072;2022-07-25T03:57:22;25.93;54.18
73780;SHT30;62093;37.614;15.072;2022-07-25T03:59:48;25.91;54.24
73780;SHT30;62093;37.614;15.072;2022-07-25T04:02:13;25.90;54.20
73780;SHT30;62093;37.614;15.072;2022-07-25T04:04:39;25.91;54.14
73780;SHT30;62093;37.614;15.072;2022-07-25T04:07:05;25.91;54.17
73780;SHT30;62093;37.614;15.072;2022-07-25T04:09:31;25.93;54.24
73780;SHT30;62093;37.614;15.072;2022-07-25T04:11:56;25.90;54.11
73780;SHT30;62093;37.614;15.072;2022-07-25T04:14:22;25.88;54.17
73780;SHT30;62093;37.614;15.072;2022-07-25T04:16:48;25.93;54.11
73780;SHT30;62093;37.614;15.072;2022-07-25T04:19:14;25.88;54.21
73780;SHT30;62093;37.614;15.072;2022-07-25T04:21:40;25.90;53.99
73780;SHT30;62093;37.614;15.072;2022-07-25T04:24:06;25.88;54.03
73780;SHT30;62093;37.614;15.072;2022-07-25T04:26:32;25.90;54.12
73780;SHT30;62093;37.614;15.072;2022-07-25T04:28:58;25.90;54.11
73780;SHT30;62093;37.614;15.072;2022-07-25T04:31:27;25.90;53.95
73780;SHT30;62093;37.614;15.072;2022-07-25T04:33:53;25.90;54.14
73780;SHT30;62093;37.614;15.072;2022-07-25T04:36:19;25.87;54.05
73780;SHT30;62093;37.614;15.072;2022-07-25T04:38:45;25.88;53.98
73780;SHT30;62093;37.614;15.072;2022-07-25T04:41:11;25.90;54.21
73780;SHT30;62093;37.614;15.072;2022-07-25T04:43:37;25.88;54.08
73780;SHT30;62093;37.614;15.072;2022-07-25T04:46:03;25.91;53.98
73780;SHT30;62093;37.614;15.072;2022-07-25T04:48:29;25.90;53.96
73780;SHT30;62093;37.614;15.072;2022-07-25T04:50:55;25.88;53.94
73780;SHT30;62093;37.614;15.072;2022-07-25T04:53:20;25.88;53.96
73780;SHT30;62093;37.614;15.072;2022-07-25T04:55:46;25.88;54.02
73780;SHT30;62093;37.614;15.072;2022-07-25T04:58:12;25.91;54.00
73780;SHT30;62093;37.614;15.072;2022-07-25T05:00:38;25.90;54.05
73780;SHT30;62093;37.614;15.072;2022-07-25T05:03:04;25.88;54.10
73780;SHT30;62093;37.614;15.072;2022-07-25T05:05:29;25.90;54.00
73780;SHT30;62093;37.614;15.072;2022-07-25T05:07:57;25.91;54.04
73780;SHT30;62093;37.614;15.072;2022-07-25T05:10:24;25.91;54.10
73780;SHT30;62093;37.614;15.072;2022-07-25T05:12:50;25.90;54.12
73780;SHT30;62093;37.614;15.072;2022-07-25T05:15:17;25.90;54.08
73780;SHT30;62093;37.614;15.072;2022-07-25T05:17:43;25.91;54.18
73780;SHT30;62093;37.614;15.072;2022-07-25T05:20:09;25.94;54.05
73780;SHT30;62093;37.614;15.072;2022-07-25T05:22:35;25.93;54.14
73780;SHT30;62093;37.614;15.072;2022-07-25T05:25:01;25.90;54.02
73780;SHT30;62093;37.614;15.072;2022-07-25T05:27:27;25.94;54.09
73780;SHT30;62093;37.614;15.072;2022-07-25T05:29:53;25.94;54.10
73780;SHT30;62093;37.614;15.072;2022-07-25T05:32:19;25.96;54.18
73780;SHT30;62093;37.614;15.072;2022-07-25T05:34:45;25.94;54.12
73780;SHT30;62093;37.614;15.072;2022-07-25T05:37:11;25.94;54.14
73780;SHT30;62093;37.614;15.072;2022-07-25T05:39:36;25.96;54.21
73780;SHT30;62093;37.614;15.072;2022-07-25T05:42:07;25.94;54.18
73780;SHT30;62093;37.614;15.072;2022-07-25T05:44:33;25.93;54.29
73780;SHT30;62093;37.614;15.072;2022-07-25T05:46:59;25.93;54.34
73780;SHT30;62093;37.614;15.072;2022-07-25T05:49:27;25.94;54.39
73780;SHT30;62093;37.614;15.072;2022-07-25T05:51:53;25.94;54.42
73780;SHT30;62093;37.614;15.072;2022-07-25T05:54:19;25.93;54.39
73780;SHT30;62093;37.614;15.072;2022-07-25T05:56:45;25.91;54.40
73780;SHT30;62093;37.614;15.072;2022-07-25T05:59:10;25.96;54.45
73780;SHT30;62093;37.614;15.072;2022-07-25T06:01:36;25.94;54.39
73780;SHT30;62093;37.614;15.072;2022-07-25T06:04:02;25.94;54.44
73780;SHT30;62093;37.614;15.072;2022-07-25T06:06:28;25.96;54.39
73780;SHT30;62093;37.614;15.072;2022-07-25T06:08:57;25.94;54.49
73780;SHT30;62093;37.614;15.072;2022-07-25T06:11:23;25.96;54.38
73780;SHT30;62093;37.614;15.072;2022-07-25T06:13:51;25.96;54.41
73780;SHT30;62093;37.614;15.072;2022-07-25T06:16:17;25.96;54.36
73780;SHT30;62093;37.614;15.072;2022-07-25T06:18:43;25.94;54.40
73780;SHT30;62093;37.614;15.072;2022-07-25T06:21:08;25.98;54.39
73780;SHT30;62093;37.614;15.072;2022-07-25T06:23:35;25.98;54.38
73780;SHT30;62093;37.614;15.072;2022-07-25T06:26:00;26.00;54.40
73780;SHT30;62093;37.614;15.072;2022-07-25T06:28:26;25.97;54.38
73780;SHT30;62093;37.614;15.072;2022-07-25T06:30:52;25.97;54.39
73780;SHT30;62093;37.614;15.072;2022-07-25T06:33:18;25.98;54.35
73780;SHT30;62093;37.614;15.072;2022-07-25T06:35:44;25.98;54.37
73780;SHT30;62093;37.614;15.072;2022-07-25T06:38:10;25.98;54.35
73780;SHT30;62093;37.614;15.072;2022-07-25T06:40:35;26.00;54.34
73780;SHT30;62093;37.614;15.072;2022-07-25T06:43:01;25.98;54.33
73780;SHT30;62093;37.614;15.072;2022-07-25T06:45:27;26.00;54.35
73780;SHT30;62093;37.614;15.072;2022-07-25T06:47:53;26.01;54.29
73780;SHT30;62093;37.614;15.072;2022-07-25T06:50:19;26.04;54.29
73780;SHT30;62093;37.614;15.072;2022-07-25T06:52:45;26.04;54.33
73780;SHT30;62093;37.614;15.072;2022-07-25T06:55:12;26.05;54.25
73780;SHT30;62093;37.614;15.072;2022-07-25T06:57:39;26.07;54.29
73780;SHT30;62093;37.614;15.072;2022-07-25T07:00:08;26.04;54.25
73780;SHT30;62093;37.614;15.072;2022-07-25T07:02:46;26.07;54.29
73780;SHT30;62093;37.614;15.072;2022-07-25T07:05:11;26.07;54.26
73780;SHT30;62093;37.614;15.072;2022-07-25T07:07:37;26.08;54.25
73780;SHT30;62093;37.614;15.072;2022-07-25T07:10:03;26.10;54.22
73780;SHT30;62093;37.614;15.072;2022-07-25T07:12:29;26.08;54.18
73780;SHT30;62093;37.614;15.072;2022-07-25T07:14:55;26.08;54.22
73780;SHT30;62093;37.614;15.072;2022-07-25T07:17:21;26.11;54.21
73780;SHT30;62093;37.614;15.072;2022-07-25T07:19:46;26.10;54.14
73780;SHT30;62093;37.614;15.072;2022-07-25T07:22:12;26.08;54.02
73780;SHT30;62093;37.614;15.072;2022-07-25T07:24:38;26.10;54.13
73780;SHT30;62093;37.614;15.072;2022-07-25T07:27:04;26.13;54.08
73780;SHT30;62093;37.614;15.072;2022-07-25T07:29:29;26.10;53.94
73780;SHT30;62093;37.614;15.072;2022-07-25T07:31:55;26.13;53.84
73780;SHT30;62093;37.614;15.072;2022-07-25T07:34:21;26.11;53.85
73780;SHT30;62093;37.614;15.072;2022-07-25T07:36:47;26.16;53.76
73780;SHT30;62093;37.614;15.072;2022-07-25T07:39:13;26.14;53.84
73780;SHT30;62093;37.614;15.072;2022-07-25T07:41:40;26.16;53.75
73780;SHT30;62093;37.614;15.072;2022-07-25T07:44:06;26.16;53.89
73780;SHT30;62093;37.614;15.072;2022-07-25T07:46:32;26.17;53.82
73780;SHT30;62093;37.614;15.072;2022-07-25T07:48:58;26.18;53.89
73780;SHT30;62093;37.614;15.072;2022-07-25T07:51:24;26.25;53.93
73780;SHT30;62093;37.614;15.072;2022-07-25T07:53:49;26.25;53.89
73780;SHT30;62093;37.614;15.072;2022-07-25T07:56:34;26.20;53.95
73780;SHT30;62093;37.614;15.072;2022-07-25T07:59:00;26.22;53.86
73780;SHT30;62093;37.614;15.072;2022-07-25T08:01:25;26.25;53.82
73780;SHT30;62093;37.614;15.072;2022-07-25T08:03:52;26.22;53.88
73780;SHT30;62093;37.614;15.072;2022-07-25T08:06:17;26.29;53.89
73780;SHT30;62093;37.614;15.072;2022-07-25T08:08:43;26.42;53.40
73780;SHT30;62093;37.614;15.072;2022-07-25T08:11:09;26.45;53.38
73780;SHT30;62093;37.614;15.072;2022-07-25T08:13:35;26.39;53.40
73780;SHT30;62093;37.614;15.072;2022-07-25T08:16:03;26.31;53.56
73780;SHT30;62093;37.614;15.072;2022-07-25T08:18:31;26.28;53.68
73780;SHT30;62093;37.614;15.072;2022-07-25T08:20:58;26.24;53.61
73780;SHT30;62093;37.614;15.072;2022-07-25T08:23:24;26.28;53.74
73780;SHT30;62093;37.614;15.072;2022-07-25T08:25:52;26.28;53.66
73780;SHT30;62093;37.614;15.072;2022-07-25T08:28:19;26.28;53.68
73780;SHT30;62093;37.614;15.072;2022-07-25T08:30:45;26.31;53.76
73780;SHT30;62093;37.614;15.072;2022-07-25T08:33:12;26.29;53.73
73780;SHT30;62093;37.614;15.072;2022-07-25T08:35:54;26.29;53.72
73780;SHT30;62093;37.614;15.072;2022-07-25T08:38:22;26.34;53.67
73780;SHT30;62093;37.614;15.072;2022-07-25T08:40:48;26.34;53.82
73780;SHT30;62093;37.614;15.072;2022-07-25T08:43:15;26.34;53.75
73780;SHT30;62093;37.614;15.072;2022-07-25T08:45:50;26.37;53.81
73780;SHT30;62093;37.614;15.072;2022-07-25T08:48:21;26.37;53.81
73780;SHT30;62093;37.614;15.072;2022-07-25T08:50:48;26.38;53.74
73780;SHT30;62093;37.614;15.072;2022-07-25T08:53:15;26.38;53.82
73780;SHT30;62093;37.614;15.072;2022-07-25T08:55:42;26.39;53.78
73780;SHT30;62093;37.614;15.072;2022-07-25T08:58:15;26.41;53.76
73780;SHT30;62093;37.614;15.072;2022-07-25T09:00:42;26.53;53.54
73780;SHT30;62093;37.614;15.072;2022-07-25T09:03:08;26.56;53.49
73780;SHT30;62093;37.614;15.072;2022-07-25T09:05:35;26.53;53.64
73780;SHT30;62093;37.614;15.072;2022-07-25T09:08:08;26.51;53.68
73780;SHT30;62093;37.614;15.072;2022-07-25T09:10:35;26.52;53.80
73780;SHT30;62093;37.614;15.072;2022-07-25T09:13:04;26.52;53.73
73780;SHT30;62093;37.614;15.072;2022-07-25T09:15:34;26.53;53.74
73780;SHT30;62093;37.614;15.072;2022-07-25T09:18:02;26.52;53.71
73780;SHT30;62093;37.614;15.072;2022-07-25T09:23:30;26.55;53.84
73780;SHT30;62093;37.614;15.072;2022-07-25T09:28:44;26.55;53.72
73780;SHT30;62093;37.614;15.072;2022-07-25T09:31:11;26.56;53.67
73780;SHT30;62093;37.614;15.072;2022-07-25T09:33:46;26.58;53.75
73780;SHT30;62093;37.614;15.072;2022-07-25T09:36:16;26.56;53.81
73780;SHT30;62093;37.614;15.072;2022-07-25T09:38:56;26.60;53.84
73780;SHT30;62093;37.614;15.072;2022-07-25T09:41:36;26.59;53.87
73780;SHT30;62093;37.614;15.072;2022-07-25T09:44:02;26.62;53.80
73780;SHT30;62093;37.614;15.072;2022-07-25T09:46:29;26.65;53.85
73780;SHT30;62093;37.614;15.072;2022-07-25T09:48:57;26.63;54.02
73780;SHT30;62093;37.614;15.072;2022-07-25T09:51:27;26.65;53.94
73780;SHT30;62093;37.614;15.072;2022-07-25T09:53:53;26.67;53.99
73780;SHT30;62093;37.614;15.072;2022-07-25T09:56:19;26.65;53.96
73780;SHT30;62093;37.614;15.072;2022-07-25T09:58:45;26.69;54.14
73780;SHT30;62093;37.614;15.072;2022-07-25T10:01:15;26.69;54.01
73780;SHT30;62093;37.614;15.072;2022-07-25T10:03:55;26.72;54.04
73780;SHT30;62093;37.614;15.072;2022-07-25T10:06:40;26.69;54.16
73780;SHT30;62093;37.614;15.072;2022-07-25T10:09:13;26.71;54.06
73780;SHT30;62093;37.614;15.072;2022-07-25T10:11:39;26.71;54.02
73780;SHT30;62093;37.614;15.072;2022-07-25T10:14:09;26.73;53.94
73780;SHT30;62093;37.614;15.072;2022-07-25T10:16:46;26.73;53.90
73780;SHT30;62093;37.614;15.072;2022-07-25T10:19:13;26.71;53.94
73780;SHT30;62093;37.614;15.072;2022-07-25T10:21:39;26.73;53.87
73780;SHT30;62093;37.614;15.072;2022-07-25T10:24:08;26.75;53.89
73780;SHT30;62093;37.614;15.072;2022-07-25T10:26:39;26.75;53.88
73780;SHT30;62093;37.614;15.072;2022-07-25T10:29:15;26.75;53.92
73780;SHT30;62093;37.614;15.072;2022-07-25T10:31:42;26.76;53.83
73780;SHT30;62093;37.614;15.072;2022-07-25T10:34:11;26.72;53.81
73780;SHT30;62093;37.614;15.072;2022-07-25T10:36:49;26.75;53.96
73780;SHT30;62093;37.614;15.072;2022-07-25T10:39:18;26.75;53.78
73780;SHT30;62093;37.614;15.072;2022-07-25T10:41:51;26.79;53.95
73780;SHT30;62093;37.614;15.072;2022-07-25T10:44:18;26.79;53.85
73780;SHT30;62093;37.614;15.072;2022-07-25T10:46:44;26.76;53.66
73780;SHT30;62093;37.614;15.072;2022-07-25T10:49:22;26.79;53.87
73780;SHT30;62093;37.614;15.072;2022-07-25T10:52:02;26.82;53.88
73780;SHT30;62093;37.614;15.072;2022-07-25T10:54:33;26.82;53.84
73780;SHT30;62093;37.614;15.072;2022-07-25T10:57:00;26.79;53.84
73780;SHT30;62093;37.614;15.072;2022-07-25T11:01:58;26.80;53.87
73780;SHT30;62093;37.614;15.072;2022-07-25T11:04:25;26.83;53.76
73780;SHT30;62093;37.614;15.072;2022-07-25T11:06:51;26.82;53.85
73780;SHT30;62093;37.614;15.072;2022-07-25T11:09:20;26.86;53.81
73780;SHT30;62093;37.614;15.072;2022-07-25T11:11:48;26.86;53.80
73780;SHT30;62093;37.614;15.072;2022-07-25T11:17:15;26.86;53.71
73780;SHT30;62093;37.614;15.072;2022-07-25T11:20:00;26.86;53.80
73780;SHT30;62093;37.614;15.072;2022-07-25T11:22:27;26.88;53.77
73780;SHT30;62093;37.614;15.072;2022-07-25T11:24:54;26.89;53.67
73780;SHT30;62093;37.614;15.072;2022-07-25T11:27:29;26.89;53.71
73780;SHT30;62093;37.614;15.072;2022-07-25T11:30:25;26.86;53.77
73780;SHT30;62093;37.614;15.072;2022-07-25T11:32:55;26.89;53.70
73780;SHT30;62093;37.614;15.072;2022-07-25T11:35:29;26.90;53.70
73780;SHT30;62093;37.614;15.072;2022-07-25T11:37:56;26.89;53.75
73780;SHT30;62093;37.614;15.072;2022-07-25T11:40:22;26.89;53.76
73780;SHT30;62093;37.614;15.072;2022-07-25T11:42:50;26.89;53.55
73780;SHT30;62093;37.614;15.072;2022-07-25T11:45:23;26.89;53.54
73780;SHT30;62093;37.614;15.072;2022-07-25T11:48:10;26.92;53.62
73780;SHT30;62093;37.614;15.072;2022-07-25T11:50:38;26.92;53.61
73780;SHT30;62093;37.614;15.072;2022-07-25T11:53:08;26.92;53.62
73780;SHT30;62093;37.614;15.072;2022-07-25T11:55:36;26.95;53.53
73780;SHT30;62093;37.614;15.072;2022-07-25T11:58:05;26.93;53.59
73780;SHT30;62093;37.614;15.072;2022-07-25T12:00:41;26.96;53.65
73780;SHT30;62093;37.614;15.072;2022-07-25T12:03:12;26.96;53.63
73780;SHT30;62093;37.614;15.072;2022-07-25T12:05:39;26.96;53.53
73780;SHT30;62093;37.614;15.072;2022-07-25T12:08:16;26.96;53.49
73780;SHT30;62093;37.614;15.072;2022-07-25T12:10:43;26.98;53.48
73780;SHT30;62093;37.614;15.072;2022-07-25T12:13:24;26.98;53.46
73780;SHT30;62093;37.614;15.072;2022-07-25T12:15:51;27.02;53.45
73780;SHT30;62093;37.614;15.072;2022-07-25T12:18:17;27.00;53.43
73780;SHT30;62093;37.614;15.072;2022-07-25T12:20:43;27.00;53.38
73780;SHT30;62093;37.614;15.072;2022-07-25T12:23:11;26.99;53.39
73780;SHT30;62093;37.614;15.072;2022-07-25T12:25:44;27.00;53.37
73780;SHT30;62093;37.614;15.072;2022-07-25T12:28:11;27.02;53.33
73780;SHT30;62093;37.614;15.072;2022-07-25T12:30:38;27.00;53.32
73780;SHT30;62093;37.614;15.072;2022-07-25T12:33:04;27.06;53.25
73780;SHT30;62093;37.614;15.072;2022-07-25T12:35:30;27.04;53.22
73780;SHT30;62093;37.614;15.072;2022-07-25T12:37:57;27.09;53.13
73780;SHT30;62093;37.614;15.072;2022-07-25T12:40:23;27.09;53.12
73780;SHT30;62093;37.614;15.072;2022-07-25T12:42:49;27.07;53.08
73780;SHT30;62093;37.614;15.072;2022-07-25T12:45:16;27.09;53.05
73780;SHT30;62093;37.614;15.072;2022-07-25T12:47:44;27.10;53.02
73780;SHT30;62093;37.614;15.072;2022-07-25T12:50:11;27.13;52.98
73780;SHT30;62093;37.614;15.072;2022-07-25T12:52:38;27.11;52.96
73780;SHT30;62093;37.614;15.072;2022-07-25T12:55:06;27.11;52.92
73780;SHT30;62093;37.614;15.072;2022-07-25T12:57:32;27.14;52.93
73780;SHT30;62093;37.614;15.072;2022-07-25T12:59:59;27.14;52.87
73780;SHT30;62093;37.614;15.072;2022-07-25T13:02:25;27.14;52.82
73780;SHT30;62093;37.614;15.072;2022-07-25T13:04:51;27.14;52.81
73780;SHT30;62093;37.614;15.072;2022-07-25T13:07:17;27.14;52.83
73780;SHT30;62093;37.614;15.072;2022-07-25T13:09:43;27.17;52.76
73780;SHT30;62093;37.614;15.072;2022-07-25T13:12:08;27.17;52.71
73780;SHT30;62093;37.614;15.072;2022-07-25T13:14:34;27.17;52.74
73780;SHT30;62093;37.614;15.072;2022-07-25T13:17:00;27.19;52.62
73780;SHT30;62093;37.614;15.072;2022-07-25T13:19:26;27.19;52.65
73780;SHT30;62093;37.614;15.072;2022-07-25T13:21:53;27.22;52.65
73780;SHT30;62093;37.614;15.072;2022-07-25T13:24:19;27.22;52.60
73780;SHT30;62093;37.614;15.072;2022-07-25T13:26:44;27.20;52.56
73780;SHT30;62093;37.614;15.072;2022-07-25T13:29:10;27.23;52.57
73780;SHT30;62093;37.614;15.072;2022-07-25T13:31:37;27.23;52.54
73780;SHT30;62093;37.614;15.072;2022-07-25T13:34:04;27.22;52.50
73780;SHT30;62093;37.614;15.072;2022-07-25T13:36:32;27.23;52.49
73780;SHT30;62093;37.614;15.072;2022-07-25T13:38:58;27.22;52.47
73780;SHT30;62093;37.614;15.072;2022-07-25T13:41:24;27.26;52.53
73780;SHT30;62093;37.614;15.072;2022-07-25T13:43:50;27.24;52.48
73780;SHT30;62093;37.614;15.072;2022-07-25T13:46:16;27.20;52.39
73780;SHT30;62093;37.614;15.072;2022-07-25T13:48:42;27.20;52.47
73780;SHT30;62093;37.614;15.072;2022-07-25T13:51:08;27.24;52.36
73780;SHT30;62093;37.614;15.072;2022-07-25T13:53:33;27.24;52.31
73780;SHT30;62093;37.614;15.072;2022-07-25T13:55:59;27.29;52.45
73780;SHT30;62093;37.614;15.072;2022-07-25T13:58:26;27.27;52.22
73780;SHT30;62093;37.614;15.072;2022-07-25T14:00:52;27.30;52.27
73780;SHT30;62093;37.614;15.072;2022-07-25T14:03:18;27.33;52.22
73780;SHT30;62093;37.614;15.072;2022-07-25T14:05:44;27.30;52.15
73780;SHT30;62093;37.614;15.072;2022-07-25T14:08:11;27.31;52.09
73780;SHT30;62093;37.614;15.072;2022-07-25T14:10:37;27.34;52.24
73780;SHT30;62093;37.614;15.072;2022-07-25T14:13:03;27.33;52.12
73780;SHT30;62093;37.614;15.072;2022-07-25T14:15:29;27.36;52.08
73780;SHT30;62093;37.614;15.072;2022-07-25T14:17:56;27.39;52.04
73780;SHT30;62093;37.614;15.072;2022-07-25T14:20:22;27.39;52.08
73780;SHT30;62093;37.614;15.072;2022-07-25T14:22:48;27.39;52.05
73780;SHT30;62093;37.614;15.072;2022-07-25T14:25:13;27.41;51.91
73780;SHT30;62093;37.614;15.072;2022-07-25T14:27:39;27.40;51.98
73780;SHT30;62093;37.614;15.072;2022-07-25T14:30:06;27.43;51.86
73780;SHT30;62093;37.614;15.072;2022-07-25T14:32:34;27.41;51.84
73780;SHT30;62093;37.614;15.072;2022-07-25T14:35:00;27.44;51.78
73780;SHT30;62093;37.614;15.072;2022-07-25T14:37:27;27.44;51.75
73780;SHT30;62093;37.614;15.072;2022-07-25T14:39:59;27.46;51.68
73780;SHT30;62093;37.614;15.072;2022-07-25T14:42:26;27.46;51.75
73780;SHT30;62093;37.614;15.072;2022-07-25T14:44:53;27.46;51.77
73780;SHT30;62093;37.614;15.072;2022-07-25T14:47:20;27.46;51.65
73780;SHT30;62093;37.614;15.072;2022-07-25T14:49:46;27.43;51.66
73780;SHT30;62093;37.614;15.072;2022-07-25T14:52:13;27.48;51.71
73780;SHT30;62093;37.614;15.072;2022-07-25T14:54:40;27.50;51.64
73780;SHT30;62093;37.614;15.072;2022-07-25T14:57:07;27.47;51.57
73780;SHT30;62093;37.614;15.072;2022-07-25T14:59:33;27.48;51.58
73780;SHT30;62093;37.614;15.072;2022-07-25T15:01:59;27.48;51.69
73780;SHT30;62093;37.614;15.072;2022-07-25T15:04:25;27.50;51.55
73780;SHT30;62093;37.614;15.072;2022-07-25T15:06:52;27.48;51.53
73780;SHT30;62093;37.614;15.072;2022-07-25T15:09:18;27.47;51.57
73780;SHT30;62093;37.614;15.072;2022-07-25T15:11:45;27.46;51.60
73780;SHT30;62093;37.614;15.072;2022-07-25T15:14:11;27.46;51.57
73780;SHT30;62093;37.614;15.072;2022-07-25T15:16:38;27.48;51.60
73780;SHT30;62093;37.614;15.072;2022-07-25T15:19:04;27.48;51.56
73780;SHT30;62093;37.614;15.072;2022-07-25T15:21:33;27.50;51.64
73780;SHT30;62093;37.614;15.072;2022-07-25T15:23:59;27.50;51.61
73780;SHT30;62093;37.614;15.072;2022-07-25T15:26:25;27.47;51.50